sensor_id;sensor_type;location;lat;lon;timestamp;P1;durP1;ratioP1;P2;durP2;ratioP2
24681;SDS011;12802;53.390;-2.328;2022-09-24T00:00:58;3.75;;;2.15;;
24681;SDS011;12802;53.390;-2.328;2022-09-24T00:03:31;5.53;;;1.92;;
24681;SDS011;12802;53.390;-2.328;2022-09-24T00:05:59;3.15;;;1.80;;
24681;SDS011;12802;53.390;-2.328;2022-09-24T00:08:27;4.35;;;2.28;;
24681;SDS011;12802;53.390;-2.328;2022-09-24T00:10:52;3.15;;;1.35;;
24681;SDS011;12802;53.390;-2.328;2022-09-24T00:13:21;6.38;;;2.10;;
24681;SDS011;12802;53.390;-2.328;2022-09-24T00:15:48;11.55;;;1.98;;
24681;SDS011;12802;53.390;-2.328;2022-09-24T00:18:15;4.45;;;2.28;;
24681;SDS011;12802;53.390;-2.328;2022-09-24T00:20:42;3.65;;;1.50;;
24681;SDS011;12802;53.390;-2.328;2022-09-24T00:23:09;7.55;;;2.13;;
24681;SDS011;12802;53.390;-2.328;2022-09-24T00:25:43;4.63;;;2.42;;
24681;SDS011;12802;53.390;-2.328;2022-09-24T00:28:28;2.53;;;1.60;;
24681;SDS011;12802;53.390;-2.328;2022-09-24T00:30:55;3.20;;;1.80;;
24681;SDS011;12802;53.390;-2.328;2022-09-24T00:33:24;6.38;;;2.42;;
24681;SDS011;12802;53.390;-2.328;2022-09-24T00:35:52;6.03;;;2.80;;
24681;SDS011;12802;53.390;-2.328;2022-09-24T00:38:22;5.35;;;2.17;;
24681;SDS011;12802;53.390;-2.328;2022-09-24T00:40:49;2.70;;;1.98;;
24681;SDS011;12802;53.390;-2.328;2022-09-24T00:43:31;3.83;;;2.28;;
24681;SDS011;12802;53.390;-2.328;2022-09-24T00:46:06;4.43;;;2.30;;
24681;SDS011;12802;53.390;-2.328;2022-09-24T00:48:51;8.52;;;2.55;;
24681;SDS011;12802;53.390;-2.328;2022-09-24T00:51:20;5.90;;;1.87;;
24681;SDS011;12802;53.390;-2.328;2022-09-24T00:56:20;7.20;;;2.20;;
24681;SDS011;12802;53.390;-2.328;2022-09-24T00:58:51;2.47;;;1.77;;
24681;SDS011;12802;53.390;-2.328;2022-09-24T01:01:21;2.88;;;2.13;;
24681;SDS011;12802;53.390;-2.328;2022-09-24T01:03:49;4.03;;;2.67;;
24681;SDS011;12802;53.390;-2.328;2022-09-24T01:06:17;3.63;;;2.17;;
24681;SDS011;12802;53.390;-2.328;2022-09-24T01:08:44;8.27;;;2.53;;
24681;SDS011;12802;53.390;-2.328;2022-09-24T01:19:28;4.60;;;1.88;;
24681;SDS011;12802;53.390;-2.328;2022-09-24T01:22:01;6.90;;;2.10;;
24681;SDS011;12802;53.390;-2.328;2022-09-24T01:24:38;14.43;;;3.13;;
24681;SDS011;12802;53.390;-2.328;2022-09-24T01:30:13;11.40;;;2.40;;
24681;SDS011;12802;53.390;-2.328;2022-09-24T01:32:40;5.50;;;2.03;;
24681;SDS011;12802;53.390;-2.328;2022-09-24T01:37:53;5.75;;;2.30;;
24681;SDS011;12802;53.390;-2.328;2022-09-24T01:40:25;3.45;;;1.83;;
24681;SDS011;12802;53.390;-2.328;2022-09-24T01:42:53;3.88;;;1.65;;
24681;SDS011;12802;53.390;-2.328;2022-09-24T01:45:21;4.15;;;2.20;;
24681;SDS011;12802;53.390;-2.328;2022-09-24T01:47:47;4.03;;;2.10;;
24681;SDS011;12802;53.390;-2.328;2022-09-24T01:50:16;6.75;;;2.50;;
24681;SDS011;12802;53.390;-2.328;2022-09-24T01:52:54;5.63;;;2.10;;
24681;SDS011;12802;53.390;-2.328;2022-09-24T01:55:27;4.03;;;1.92;;
24681;SDS011;12802;53.390;-2.328;2022-09-24T01:58:05;4.70;;;1.75;;
24681;SDS011;12802;53.390;-2.328;2022-09-24T02:00:35;3.60;;;2.05;;
24681;SDS011;12802;53.390;-2.328;2022-09-24T02:08:40;7.18;;;2.70;;
24681;SDS011;12802;53.390;-2.328;2022-09-24T02:11:17;4.47;;;1.80;;
24681;SDS011;12802;53.390;-2.328;2022-09-24T02:14:00;2.38;;;1.42;;
24681;SDS011;12802;53.390;-2.328;2022-09-24T02:16:32;6.80;;;2.05;;
24681;SDS011;12802;53.390;-2.328;2022-09-24T02:19:02;2.90;;;1.95;;
24681;SDS011;12802;53.390;-2.328;2022-09-24T02:21:30;3.72;;;1.48;;
24681;SDS011;12802;53.390;-2.328;2022-09-24T02:24:04;6.10;;;1.60;;
24681;SDS011;12802;53.390;-2.328;2022-09-24T02:26:36;4.80;;;1.65;;
24681;SDS011;12802;53.390;-2.328;2022-09-24T02:29:02;4.43;;;1.58;;
24681;SDS011;12802;53.390;-2.328;2022-09-24T02:31:30;1.95;;;1.23;;
24681;SDS011;12802;53.390;-2.328;2022-09-24T02:34:01;2.10;;;1.45;;
24681;SDS011;12802;53.390;-2.328;2022-09-24T02:36:49;5.68;;;1.70;;
24681;SDS011;12802;53.390;-2.328;2022-09-24T02:39:19;5.07;;;1.85;;
24681;SDS011;12802;53.390;-2.328;2022-09-24T02:41:45;2.88;;;1.23;;
24681;SDS011;12802;53.390;-2.328;2022-09-24T02:44:14;2.60;;;1.55;;
24681;SDS011;12802;53.390;-2.328;2022-09-24T02:46:41;2.97;;;1.25;;
24681;SDS011;12802;53.390;-2.328;2022-09-24T02:49:07;2.05;;;1.00;;
24681;SDS011;12802;53.390;-2.328;2022-09-24T02:51:34;3.40;;;1.20;;
24681;SDS011;12802;53.390;-2.328;2022-09-24T02:54:00;2.38;;;1.20;;
24681;SDS011;12802;53.390;-2.328;2022-09-24T02:56:27;2.65;;;1.30;;
24681;SDS011;12802;53.390;-2.328;2022-09-24T02:58:53;2.90;;;1.00;;
24681;SDS011;12802;53.390;-2.328;2022-09-24T03:01:19;2.60;;;1.00;;
24681;SDS011;12802;53.390;-2.328;2022-09-24T03:03:46;4.82;;;1.08;;
24681;SDS011;12802;53.390;-2.328;2022-09-24T03:06:12;2.22;;;1.17;;
24681;SDS011;12802;53.390;-2.328;2022-09-24T03:08:41;8.00;;;1.80;;
24681;SDS011;12802;53.390;-2.328;2022-09-24T03:13:35;1.20;;;0.82;;
24681;SDS011;12802;53.390;-2.328;2022-09-24T03:16:05;5.13;;;1.85;;
24681;SDS011;12802;53.390;-2.328;2022-09-24T03:18:32;5.55;;;1.85;;
24681;SDS011;12802;53.390;-2.328;2022-09-24T03:20:59;2.67;;;1.42;;
24681;SDS011;12802;53.390;-2.328;2022-09-24T03:23:33;3.35;;;1.25;;
24681;SDS011;12802;53.390;-2.328;2022-09-24T03:25:59;2.38;;;1.30;;
24681;SDS011;12802;53.390;-2.328;2022-09-24T03:28:26;3.92;;;1.17;;
24681;SDS011;12802;53.390;-2.328;2022-09-24T03:30:52;3.95;;;1.17;;
24681;SDS011;12802;53.390;-2.328;2022-09-24T03:33:25;3.05;;;1.27;;
24681;SDS011;12802;53.390;-2.328;2022-09-24T03:35:56;5.18;;;1.83;;
24681;SDS011;12802;53.390;-2.328;2022-09-24T03:38:22;8.15;;;1.45;;
24681;SDS011;12802;53.390;-2.328;2022-09-24T03:40:49;1.27;;;0.93;;
24681;SDS011;12802;53.390;-2.328;2022-09-24T03:43:14;4.32;;;1.27;;
24681;SDS011;12802;53.390;-2.328;2022-09-24T03:45:40;2.88;;;0.93;;
24681;SDS011;12802;53.390;-2.328;2022-09-24T03:48:06;2.95;;;1.35;;
24681;SDS011;12802;53.390;-2.328;2022-09-24T03:50:34;4.97;;;1.20;;
24681;SDS011;12802;53.390;-2.328;2022-09-24T03:53:01;1.70;;;0.82;;
24681;SDS011;12802;53.390;-2.328;2022-09-24T03:55:27;5.53;;;1.30;;
24681;SDS011;12802;53.390;-2.328;2022-09-24T03:57:53;1.98;;;1.00;;
24681;SDS011;12802;53.390;-2.328;2022-09-24T04:00:19;2.80;;;1.27;;
24681;SDS011;12802;53.390;-2.328;2022-09-24T04:02:45;2.72;;;1.33;;
24681;SDS011;12802;53.390;-2.328;2022-09-24T04:05:10;1.73;;;1.20;;
24681;SDS011;12802;53.390;-2.328;2022-09-24T04:07:36;4.60;;;1.58;;
24681;SDS011;12802;53.390;-2.328;2022-09-24T04:10:03;7.32;;;1.00;;
24681;SDS011;12802;53.390;-2.328;2022-09-24T04:12:29;5.20;;;1.48;;
24681;SDS011;12802;53.390;-2.328;2022-09-24T04:14:55;2.25;;;0.95;;
24681;SDS011;12802;53.390;-2.328;2022-09-24T04:17:21;2.15;;;1.13;;
24681;SDS011;12802;53.390;-2.328;2022-09-24T04:19:46;1.98;;;0.85;;
24681;SDS011;12802;53.390;-2.328;2022-09-24T04:22:12;2.78;;;1.33;;
24681;SDS011;12802;53.390;-2.328;2022-09-24T04:24:38;4.85;;;1.30;;
24681;SDS011;12802;53.390;-2.328;2022-09-24T04:27:04;2.78;;;1.23;;
24681;SDS011;12802;53.390;-2.328;2022-09-24T04:29:30;1.63;;;0.85;;
24681;SDS011;12802;53.390;-2.328;2022-09-24T04:31:56;6.10;;;1.13;;
24681;SDS011;12802;53.390;-2.328;2022-09-24T04:34:21;3.40;;;0.70;;
24681;SDS011;12802;53.390;-2.328;2022-09-24T04:36:47;2.28;;;1.15;;
24681;SDS011;12802;53.390;-2.328;2022-09-24T04:39:13;2.05;;;1.00;;
24681;SDS011;12802;53.390;-2.328;2022-09-24T04:41:39;8.15;;;1.05;;
24681;SDS011;12802;53.390;-2.328;2022-09-24T04:44:05;1.48;;;1.00;;
24681;SDS011;12802;53.390;-2.328;2022-09-24T04:46:31;2.60;;;1.38;;
24681;SDS011;12802;53.390;-2.328;2022-09-24T04:48:59;2.65;;;0.60;;
24681;SDS011;12802;53.390;-2.328;2022-09-24T04:51:25;8.63;;;1.17;;
24681;SDS011;12802;53.390;-2.328;2022-09-24T04:53:51;1.38;;;0.95;;
24681;SDS011;12802;53.390;-2.328;2022-09-24T04:56:17;0.60;;;0.52;;
24681;SDS011;12802;53.390;-2.328;2022-09-24T04:58:43;4.60;;;1.65;;
24681;SDS011;12802;53.390;-2.328;2022-09-24T05:01:08;3.53;;;1.20;;
24681;SDS011;12802;53.390;-2.328;2022-09-24T05:03:34;1.73;;;0.63;;
24681;SDS011;12802;53.390;-2.328;2022-09-24T05:06:00;1.15;;;0.50;;
24681;SDS011;12802;53.390;-2.328;2022-09-24T05:08:26;1.73;;;0.43;;
24681;SDS011;12802;53.390;-2.328;2022-09-24T05:10:52;2.40;;;0.85;;
24681;SDS011;12802;53.390;-2.328;2022-09-24T05:13:18;5.10;;;0.85;;
24681;SDS011;12802;53.390;-2.328;2022-09-24T05:15:45;2.13;;;1.13;;
24681;SDS011;12802;53.390;-2.328;2022-09-24T05:18:11;3.72;;;1.02;;
24681;SDS011;12802;53.390;-2.328;2022-09-24T05:20:37;1.40;;;0.88;;
24681;SDS011;12802;53.390;-2.328;2022-09-24T05:23:02;1.73;;;0.75;;
24681;SDS011;12802;53.390;-2.328;2022-09-24T05:25:29;0.95;;;0.50;;
24681;SDS011;12802;53.390;-2.328;2022-09-24T05:27:55;1.42;;;0.85;;
24681;SDS011;12802;53.390;-2.328;2022-09-24T05:30:21;1.83;;;0.88;;
24681;SDS011;12802;53.390;-2.328;2022-09-24T05:32:48;2.47;;;1.40;;
24681;SDS011;12802;53.390;-2.328;2022-09-24T05:35:16;2.35;;;0.70;;
24681;SDS011;12802;53.390;-2.328;2022-09-24T05:37:47;3.08;;;1.00;;
24681;SDS011;12802;53.390;-2.328;2022-09-24T05:40:17;4.43;;;0.82;;
24681;SDS011;12802;53.390;-2.328;2022-09-24T05:43:02;3.35;;;0.65;;
24681;SDS011;12802;53.390;-2.328;2022-09-24T05:45:29;1.23;;;0.73;;
24681;SDS011;12802;53.390;-2.328;2022-09-24T05:47:55;0.77;;;0.40;;
24681;SDS011;12802;53.390;-2.328;2022-09-24T05:50:21;2.83;;;0.70;;
24681;SDS011;12802;53.390;-2.328;2022-09-24T05:52:47;0.90;;;0.43;;
24681;SDS011;12802;53.390;-2.328;2022-09-24T05:55:13;2.03;;;0.50;;
24681;SDS011;12802;53.390;-2.328;2022-09-24T05:57:39;1.52;;;0.65;;
24681;SDS011;12802;53.390;-2.328;2022-09-24T06:00:05;3.53;;;1.05;;
24681;SDS011;12802;53.390;-2.328;2022-09-24T06:02:37;1.35;;;1.13;;
24681;SDS011;12802;53.390;-2.328;2022-09-24T06:05:03;2.80;;;0.90;;
24681;SDS011;12802;53.390;-2.328;2022-09-24T06:07:30;4.07;;;1.08;;
24681;SDS011;12802;53.390;-2.328;2022-09-24T06:09:55;2.42;;;1.10;;
24681;SDS011;12802;53.390;-2.328;2022-09-24T06:12:23;2.08;;;0.93;;
24681;SDS011;12802;53.390;-2.328;2022-09-24T06:14:49;3.70;;;1.20;;
24681;SDS011;12802;53.390;-2.328;2022-09-24T06:17:18;2.55;;;1.15;;
24681;SDS011;12802;53.390;-2.328;2022-09-24T06:19:45;4.68;;;1.20;;
24681;SDS011;12802;53.390;-2.328;2022-09-24T06:22:11;0.82;;;0.45;;
24681;SDS011;12802;53.390;-2.328;2022-09-24T06:24:37;0.60;;;0.50;;
24681;SDS011;12802;53.390;-2.328;2022-09-24T06:27:04;1.15;;;0.60;;
24681;SDS011;12802;53.390;-2.328;2022-09-24T06:29:30;0.60;;;0.57;;
24681;SDS011;12802;53.390;-2.328;2022-09-24T06:31:56;1.00;;;0.70;;
24681;SDS011;12802;53.390;-2.328;2022-09-24T06:34:22;1.77;;;1.15;;
24681;SDS011;12802;53.390;-2.328;2022-09-24T06:36:47;4.28;;;1.50;;
24681;SDS011;12802;53.390;-2.328;2022-09-24T06:39:18;5.63;;;1.60;;
24681;SDS011;12802;53.390;-2.328;2022-09-24T06:41:43;3.78;;;1.60;;
24681;SDS011;12802;53.390;-2.328;2022-09-24T06:46:39;5.28;;;1.25;;
24681;SDS011;12802;53.390;-2.328;2022-09-24T06:49:04;2.03;;;1.40;;
24681;SDS011;12802;53.390;-2.328;2022-09-24T06:51:30;2.95;;;1.60;;
24681;SDS011;12802;53.390;-2.328;2022-09-24T06:53:56;2.28;;;1.10;;
24681;SDS011;12802;53.390;-2.328;2022-09-24T06:56:22;2.25;;;1.60;;
24681;SDS011;12802;53.390;-2.328;2022-09-24T06:58:47;2.25;;;1.42;;
24681;SDS011;12802;53.390;-2.328;2022-09-24T07:01:13;3.00;;;1.40;;
24681;SDS011;12802;53.390;-2.328;2022-09-24T07:03:39;1.73;;;1.10;;
24681;SDS011;12802;53.390;-2.328;2022-09-24T07:06:05;2.38;;;1.42;;
24681;SDS011;12802;53.390;-2.328;2022-09-24T07:08:31;3.88;;;1.58;;
24681;SDS011;12802;53.390;-2.328;2022-09-24T07:10:57;2.30;;;1.02;;
24681;SDS011;12802;53.390;-2.328;2022-09-24T07:13:24;11.88;;;1.63;;
24681;SDS011;12802;53.390;-2.328;2022-09-24T07:15:51;2.88;;;1.50;;
24681;SDS011;12802;53.390;-2.328;2022-09-24T07:18:17;2.63;;;1.25;;
24681;SDS011;12802;53.390;-2.328;2022-09-24T07:20:44;2.33;;;1.27;;
24681;SDS011;12802;53.390;-2.328;2022-09-24T07:23:15;3.40;;;1.45;;
24681;SDS011;12802;53.390;-2.328;2022-09-24T07:25:42;3.42;;;1.50;;
24681;SDS011;12802;53.390;-2.328;2022-09-24T07:28:09;3.03;;;1.58;;
24681;SDS011;12802;53.390;-2.328;2022-09-24T07:30:37;4.00;;;1.63;;
24681;SDS011;12802;53.390;-2.328;2022-09-24T07:33:03;4.90;;;2.15;;
24681;SDS011;12802;53.390;-2.328;2022-09-24T07:35:31;5.90;;;2.95;;
24681;SDS011;12802;53.390;-2.328;2022-09-24T07:38:01;4.35;;;2.13;;
24681;SDS011;12802;53.390;-2.328;2022-09-24T07:40:29;4.60;;;2.20;;
24681;SDS011;12802;53.390;-2.328;2022-09-24T07:42:56;6.95;;;2.45;;
24681;SDS011;12802;53.390;-2.328;2022-09-24T07:45:23;5.18;;;2.65;;
24681;SDS011;12802;53.390;-2.328;2022-09-24T07:47:59;4.25;;;1.88;;
24681;SDS011;12802;53.390;-2.328;2022-09-24T07:50:27;6.82;;;2.63;;
24681;SDS011;12802;53.390;-2.328;2022-09-24T07:52:55;4.55;;;2.53;;
24681;SDS011;12802;53.390;-2.328;2022-09-24T07:55:21;4.03;;;1.83;;
24681;SDS011;12802;53.390;-2.328;2022-09-24T07:57:52;2.03;;;1.33;;
24681;SDS011;12802;53.390;-2.328;2022-09-24T08:00:19;4.68;;;2.10;;
24681;SDS011;12802;53.390;-2.328;2022-09-24T08:02:47;3.58;;;1.95;;
24681;SDS011;12802;53.390;-2.328;2022-09-24T08:05:13;3.95;;;1.77;;
24681;SDS011;12802;53.390;-2.328;2022-09-24T08:07:41;3.90;;;1.83;;
24681;SDS011;12802;53.390;-2.328;2022-09-24T08:10:06;3.15;;;1.80;;
24681;SDS011;12802;53.390;-2.328;2022-09-24T08:12:33;5.63;;;1.98;;
24681;SDS011;12802;53.390;-2.328;2022-09-24T08:14:59;3.70;;;1.65;;
24681;SDS011;12802;53.390;-2.328;2022-09-24T08:17:25;6.25;;;1.95;;
24681;SDS011;12802;53.390;-2.328;2022-09-24T08:19:51;4.88;;;1.73;;
24681;SDS011;12802;53.390;-2.328;2022-09-24T08:22:21;4.47;;;1.92;;
24681;SDS011;12802;53.390;-2.328;2022-09-24T08:24:48;3.47;;;1.40;;
24681;SDS011;12802;53.390;-2.328;2022-09-24T08:27:14;3.28;;;1.90;;
24681;SDS011;12802;53.390;-2.328;2022-09-24T08:29:41;5.57;;;1.88;;
24681;SDS011;12802;53.390;-2.328;2022-09-24T08:32:07;4.63;;;1.85;;
24681;SDS011;12802;53.390;-2.328;2022-09-24T08:34:33;2.97;;;1.70;;
24681;SDS011;12802;53.390;-2.328;2022-09-24T08:37:03;3.35;;;2.25;;
24681;SDS011;12802;53.390;-2.328;2022-09-24T08:39:30;8.57;;;2.88;;
24681;SDS011;12802;53.390;-2.328;2022-09-24T08:42:01;9.25;;;2.33;;
24681;SDS011;12802;53.390;-2.328;2022-09-24T08:47:37;4.97;;;2.25;;
24681;SDS011;12802;53.390;-2.328;2022-09-24T09:00:23;8.10;;;2.70;;
24681;SDS011;12802;53.390;-2.328;2022-09-24T09:03:00;6.40;;;2.78;;
24681;SDS011;12802;53.390;-2.328;2022-09-24T09:05:50;9.80;;;2.40;;
24681;SDS011;12802;53.390;-2.328;2022-09-24T09:11:22;6.88;;;2.53;;
24681;SDS011;12802;53.390;-2.328;2022-09-24T09:14:09;4.85;;;2.65;;
24681;SDS011;12802;53.390;-2.328;2022-09-24T09:16:59;7.43;;;2.45;;
24681;SDS011;12802;53.390;-2.328;2022-09-24T09:19:29;9.40;;;2.90;;
24681;SDS011;12802;53.390;-2.328;2022-09-24T09:22:12;4.38;;;2.45;;
24681;SDS011;12802;53.390;-2.328;2022-09-24T09:24:46;5.50;;;3.03;;
24681;SDS011;12802;53.390;-2.328;2022-09-24T09:27:14;4.75;;;2.65;;
24681;SDS011;12802;53.390;-2.328;2022-09-24T09:29:42;9.25;;;2.35;;
24681;SDS011;12802;53.390;-2.328;2022-09-24T09:32:15;6.95;;;2.85;;
24681;SDS011;12802;53.390;-2.328;2022-09-24T09:37:29;5.00;;;2.55;;
24681;SDS011;12802;53.390;-2.328;2022-09-24T09:40:03;8.23;;;2.50;;
24681;SDS011;12802;53.390;-2.328;2022-09-24T09:43:01;4.05;;;2.35;;
24681;SDS011;12802;53.390;-2.328;2022-09-24T09:48:04;4.95;;;2.40;;
24681;SDS011;12802;53.390;-2.328;2022-09-24T09:53:17;10.38;;;2.42;;
24681;SDS011;12802;53.390;-2.328;2022-09-24T09:58:25;7.95;;;2.75;;
24681;SDS011;12802;53.390;-2.328;2022-09-24T10:01:01;5.38;;;2.25;;
24681;SDS011;12802;53.390;-2.328;2022-09-24T10:06:21;7.05;;;2.13;;
24681;SDS011;12802;53.390;-2.328;2022-09-24T10:08:47;4.13;;;2.17;;
24681;SDS011;12802;53.390;-2.328;2022-09-24T10:11:14;5.38;;;2.20;;
24681;SDS011;12802;53.390;-2.328;2022-09-24T10:13:41;8.38;;;2.03;;
24681;SDS011;12802;53.390;-2.328;2022-09-24T10:16:08;6.53;;;2.53;;
24681;SDS011;12802;53.390;-2.328;2022-09-24T10:18:36;3.88;;;2.03;;
24681;SDS011;12802;53.390;-2.328;2022-09-24T10:21:03;3.05;;;1.63;;
24681;SDS011;12802;53.390;-2.328;2022-09-24T10:23:40;3.20;;;1.55;;
24681;SDS011;12802;53.390;-2.328;2022-09-24T10:26:08;3.58;;;1.25;;
24681;SDS011;12802;53.390;-2.328;2022-09-24T10:28:36;4.20;;;1.30;;
24681;SDS011;12802;53.390;-2.328;2022-09-24T10:31:28;2.60;;;1.23;;
24681;SDS011;12802;53.390;-2.328;2022-09-24T10:33:56;5.28;;;1.42;;
24681;SDS011;12802;53.390;-2.328;2022-09-24T10:36:25;3.33;;;1.05;;
24681;SDS011;12802;53.390;-2.328;2022-09-24T10:41:48;4.45;;;0.90;;
24681;SDS011;12802;53.390;-2.328;2022-09-24T10:44:18;3.22;;;1.10;;
24681;SDS011;12802;53.390;-2.328;2022-09-24T10:56:02;5.10;;;0.98;;
24681;SDS011;12802;53.390;-2.328;2022-09-24T11:03:40;5.45;;;1.48;;
24681;SDS011;12802;53.390;-2.328;2022-09-24T11:06:39;3.97;;;0.93;;
24681;SDS011;12802;53.390;-2.328;2022-09-24T11:09:31;4.13;;;0.50;;
24681;SDS011;12802;53.390;-2.328;2022-09-24T11:12:12;6.32;;;0.77;;
24681;SDS011;12802;53.390;-2.328;2022-09-24T11:15:03;1.25;;;0.55;;
24681;SDS011;12802;53.390;-2.328;2022-09-24T11:31:51;0.90;;;0.45;;
24681;SDS011;12802;53.390;-2.328;2022-09-24T11:46:10;0.52;;;0.40;;
24681;SDS011;12802;53.390;-2.328;2022-09-24T11:56:56;1.13;;;0.82;;
24681;SDS011;12802;53.390;-2.328;2022-09-24T12:02:31;1.63;;;0.60;;
24681;SDS011;12802;53.390;-2.328;2022-09-24T12:13:24;3.40;;;0.70;;
24681;SDS011;12802;53.390;-2.328;2022-09-24T12:16:16;0.30;;;0.22;;
24681;SDS011;12802;53.390;-2.328;2022-09-24T12:21:30;1.00;;;0.50;;
24681;SDS011;12802;53.390;-2.328;2022-09-24T12:24:00;1.10;;;0.40;;
24681;SDS011;12802;53.390;-2.328;2022-09-24T12:26:32;1.55;;;0.30;;
24681;SDS011;12802;53.390;-2.328;2022-09-24T12:32:17;1.52;;;0.30;;
24681;SDS011;12802;53.390;-2.328;2022-09-24T12:49:24;2.95;;;0.20;;
24681;SDS011;12802;53.390;-2.328;2022-09-24T12:51:59;0.65;;;0.40;;
24681;SDS011;12802;53.390;-2.328;2022-09-24T12:54:34;1.38;;;0.40;;
24681;SDS011;12802;53.390;-2.328;2022-09-24T13:02:24;0.38;;;0.30;;
24681;SDS011;12802;53.390;-2.328;2022-09-24T13:10:51;2.13;;;0.40;;
24681;SDS011;12802;53.390;-2.328;2022-09-24T13:13:30;2.00;;;0.90;;
24681;SDS011;12802;53.390;-2.328;2022-09-24T13:16:00;2.25;;;0.63;;
24681;SDS011;12802;53.390;-2.328;2022-09-24T13:18:28;0.33;;;0.20;;
24681;SDS011;12802;53.390;-2.328;2022-09-24T13:20:56;3.38;;;0.40;;
24681;SDS011;12802;53.390;-2.328;2022-09-24T13:26:07;2.00;;;0.43;;
24681;SDS011;12802;53.390;-2.328;2022-09-24T13:31:19;0.70;;;0.40;;
24681;SDS011;12802;53.390;-2.328;2022-09-24T13:39:14;2.15;;;0.40;;
24681;SDS011;12802;53.390;-2.328;2022-09-24T13:42:15;0.45;;;0.30;;
24681;SDS011;12802;53.390;-2.328;2022-09-24T13:44:46;1.40;;;0.25;;
24681;SDS011;12802;53.390;-2.328;2022-09-24T13:52:49;3.15;;;0.70;;
24681;SDS011;12802;53.390;-2.328;2022-09-24T13:55:32;1.50;;;0.55;;
24681;SDS011;12802;53.390;-2.328;2022-09-24T14:00:55;3.03;;;0.30;;
24681;SDS011;12802;53.390;-2.328;2022-09-24T14:03:27;2.55;;;0.47;;
24681;SDS011;12802;53.390;-2.328;2022-09-24T14:05:57;1.00;;;0.38;;
24681;SDS011;12802;53.390;-2.328;2022-09-24T14:08:24;5.43;;;0.60;;
24681;SDS011;12802;53.390;-2.328;2022-09-24T14:11:04;0.40;;;0.30;;
24681;SDS011;12802;53.390;-2.328;2022-09-24T14:13:34;0.43;;;0.20;;
24681;SDS011;12802;53.390;-2.328;2022-09-24T14:16:07;1.60;;;0.73;;
24681;SDS011;12802;53.390;-2.328;2022-09-24T14:18:41;3.17;;;0.50;;
24681;SDS011;12802;53.390;-2.328;2022-09-24T14:24:00;1.95;;;0.47;;
24681;SDS011;12802;53.390;-2.328;2022-09-24T14:26:29;1.10;;;0.40;;
24681;SDS011;12802;53.390;-2.328;2022-09-24T14:28:56;2.83;;;0.65;;
24681;SDS011;12802;53.390;-2.328;2022-09-24T14:31:24;2.88;;;0.88;;
24681;SDS011;12802;53.390;-2.328;2022-09-24T14:33:51;4.55;;;1.73;;
24681;SDS011;12802;53.390;-2.328;2022-09-24T14:36:17;8.20;;;1.60;;
24681;SDS011;12802;53.390;-2.328;2022-09-24T14:41:29;1.30;;;0.65;;
24681;SDS011;12802;53.390;-2.328;2022-09-24T14:43:59;4.40;;;0.75;;
24681;SDS011;12802;53.390;-2.328;2022-09-24T14:46:31;4.32;;;0.98;;
24681;SDS011;12802;53.390;-2.328;2022-09-24T14:49:25;2.25;;;0.77;;
24681;SDS011;12802;53.390;-2.328;2022-09-24T14:52:23;3.35;;;1.35;;
24681;SDS011;12802;53.390;-2.328;2022-09-24T14:55:07;1.85;;;1.02;;
24681;SDS011;12802;53.390;-2.328;2022-09-24T14:57:35;2.30;;;0.60;;
24681;SDS011;12802;53.390;-2.328;2022-09-24T15:00:03;4.90;;;1.30;;
24681;SDS011;12802;53.390;-2.328;2022-09-24T15:02:45;2.80;;;0.90;;
24681;SDS011;12802;53.390;-2.328;2022-09-24T15:05:15;2.13;;;0.63;;
24681;SDS011;12802;53.390;-2.328;2022-09-24T15:07:41;4.60;;;0.88;;
24681;SDS011;12802;53.390;-2.328;2022-09-24T15:10:16;4.25;;;0.55;;
24681;SDS011;12802;53.390;-2.328;2022-09-24T15:12:45;1.27;;;0.40;;
24681;SDS011;12802;53.390;-2.328;2022-09-24T15:17:41;1.07;;;0.50;;
24681;SDS011;12802;53.390;-2.328;2022-09-24T15:20:09;2.92;;;0.65;;
24681;SDS011;12802;53.390;-2.328;2022-09-24T15:22:36;0.68;;;0.20;;
24681;SDS011;12802;53.390;-2.328;2022-09-24T15:25:03;2.17;;;0.30;;
24681;SDS011;12802;53.390;-2.328;2022-09-24T15:27:30;1.65;;;0.30;;
24681;SDS011;12802;53.390;-2.328;2022-09-24T15:29:57;0.65;;;0.30;;
24681;SDS011;12802;53.390;-2.328;2022-09-24T15:32:25;5.10;;;0.55;;
24681;SDS011;12802;53.390;-2.328;2022-09-24T15:34:52;1.85;;;0.57;;
24681;SDS011;12802;53.390;-2.328;2022-09-24T15:37:21;1.00;;;0.22;;
24681;SDS011;12802;53.390;-2.328;2022-09-24T15:39:48;1.70;;;0.60;;
24681;SDS011;12802;53.390;-2.328;2022-09-24T15:42:15;2.55;;;0.50;;
24681;SDS011;12802;53.390;-2.328;2022-09-24T15:44:45;0.95;;;0.30;;
24681;SDS011;12802;53.390;-2.328;2022-09-24T15:47:12;0.80;;;0.40;;
24681;SDS011;12802;53.390;-2.328;2022-09-24T15:49:38;0.82;;;0.40;;
24681;SDS011;12802;53.390;-2.328;2022-09-24T15:52:05;1.20;;;0.30;;
24681;SDS011;12802;53.390;-2.328;2022-09-24T15:54:40;0.55;;;0.10;;
24681;SDS011;12802;53.390;-2.328;2022-09-24T15:57:06;3.05;;;0.30;;
24681;SDS011;12802;53.390;-2.328;2022-09-24T15:59:36;9.25;;;0.75;;
24681;SDS011;12802;53.390;-2.328;2022-09-24T16:02:02;2.20;;;0.32;;
24681;SDS011;12802;53.390;-2.328;2022-09-24T16:04:36;0.65;;;0.30;;
24681;SDS011;12802;53.390;-2.328;2022-09-24T16:07:02;0.88;;;0.50;;
24681;SDS011;12802;53.390;-2.328;2022-09-24T16:09:28;0.57;;;0.50;;
24681;SDS011;12802;53.390;-2.328;2022-09-24T16:11:54;1.08;;;0.30;;
24681;SDS011;12802;53.390;-2.328;2022-09-24T16:14:21;1.92;;;0.40;;
24681;SDS011;12802;53.390;-2.328;2022-09-24T16:16:47;3.35;;;0.70;;
24681;SDS011;12802;53.390;-2.328;2022-09-24T16:19:13;1.15;;;0.30;;
24681;SDS011;12802;53.390;-2.328;2022-09-24T16:21:38;1.55;;;0.40;;
24681;SDS011;12802;53.390;-2.328;2022-09-24T16:24:04;0.85;;;0.30;;
24681;SDS011;12802;53.390;-2.328;2022-09-24T16:26:30;1.67;;;0.85;;
24681;SDS011;12802;53.390;-2.328;2022-09-24T16:28:56;4.68;;;0.75;;
24681;SDS011;12802;53.390;-2.328;2022-09-24T16:31:22;2.03;;;0.65;;
24681;SDS011;12802;53.390;-2.328;2022-09-24T16:33:48;3.65;;;0.70;;
24681;SDS011;12802;53.390;-2.328;2022-09-24T16:36:14;3.83;;;0.45;;
24681;SDS011;12802;53.390;-2.328;2022-09-24T16:38:40;1.33;;;0.60;;
24681;SDS011;12802;53.390;-2.328;2022-09-24T16:41:06;1.02;;;0.50;;
24681;SDS011;12802;53.390;-2.328;2022-09-24T16:43:32;1.95;;;0.68;;
24681;SDS011;12802;53.390;-2.328;2022-09-24T16:46:01;2.50;;;0.80;;
24681;SDS011;12802;53.390;-2.328;2022-09-24T16:48:29;2.65;;;0.57;;
24681;SDS011;12802;53.390;-2.328;2022-09-24T16:51:02;0.73;;;0.50;;
24681;SDS011;12802;53.390;-2.328;2022-09-24T16:53:28;0.82;;;0.50;;
24681;SDS011;12802;53.390;-2.328;2022-09-24T16:56:04;2.55;;;0.60;;
24681;SDS011;12802;53.390;-2.328;2022-09-24T16:58:37;0.80;;;0.50;;
24681;SDS011;12802;53.390;-2.328;2022-09-24T17:01:05;1.75;;;0.82;;
24681;SDS011;12802;53.390;-2.328;2022-09-24T17:03:33;0.90;;;0.40;;
24681;SDS011;12802;53.390;-2.328;2022-09-24T17:06:00;1.55;;;0.40;;
24681;SDS011;12802;53.390;-2.328;2022-09-24T17:08:26;1.48;;;0.75;;
24681;SDS011;12802;53.390;-2.328;2022-09-24T17:11:12;1.25;;;0.50;;
24681;SDS011;12802;53.390;-2.328;2022-09-24T17:13:38;1.02;;;0.55;;
24681;SDS011;12802;53.390;-2.328;2022-09-24T17:16:04;3.85;;;0.52;;
24681;SDS011;12802;53.390;-2.328;2022-09-24T17:18:30;2.53;;;0.75;;
24681;SDS011;12802;53.390;-2.328;2022-09-24T17:21:02;4.40;;;0.68;;
24681;SDS011;12802;53.390;-2.328;2022-09-24T17:23:34;7.45;;;0.85;;
24681;SDS011;12802;53.390;-2.328;2022-09-24T17:26:04;3.20;;;0.70;;
24681;SDS011;12802;53.390;-2.328;2022-09-24T17:28:31;2.72;;;0.65;;
24681;SDS011;12802;53.390;-2.328;2022-09-24T17:31:01;5.35;;;0.80;;
24681;SDS011;12802;53.390;-2.328;2022-09-24T17:33:27;6.53;;;1.00;;
24681;SDS011;12802;53.390;-2.328;2022-09-24T17:36:00;2.63;;;0.88;;
24681;SDS011;12802;53.390;-2.328;2022-09-24T17:38:31;5.22;;;0.73;;
24681;SDS011;12802;53.390;-2.328;2022-09-24T17:40:58;2.28;;;0.82;;
24681;SDS011;12802;53.390;-2.328;2022-09-24T17:43:26;0.65;;;0.40;;
24681;SDS011;12802;53.390;-2.328;2022-09-24T17:48:42;2.53;;;0.93;;